Time;durP1;ratioP1;P1;durP2;ratioP2;P2;SDS_P1;SDS_P2;PMS_P1;PMS_P2;Temp;Humidity;BMP_temperature;BMP_pressure;BME280_temperature;BME280_humidity;BME280_pressure;Samples;Min_cycle;Max_cycle;Signal;HPM_P1;HPM_P2
2022/07/04 00:02:17;;;;;;;6.57;1.20;;;;;;;-141.50;100.00;63355.56;5025668;28;20080;-81
2022/07/04 00:04:43;;;;;;;4.35;1.10;;;;;;;-141.50;100.00;63355.56;5035742;28;20057;-80
2022/07/04 00:07:11;;;;;;;3.92;1.05;;;;;;;-141.50;100.00;63355.56;5035649;28;20046;-80
2022/07/04 00:09:37;;;;;;;5.88;1.10;;;;;;;-141.50;100.00;63355.56;5016724;28;20473;-79
2022/07/04 00:12:04;;;;;;;2.28;1.33;;;;;;;-141.50;100.00;63355.56;5035846;28;20161;-78
2022/07/04 00:14:31;;;;;;;7.65;1.20;;;;;;;-141.50;100.00;63355.56;5038021;28;20077;-79
2022/07/04 00:16:57;;;;;;;2.72;0.90;;;;;;;-141.50;100.00;63355.56;5039862;28;20095;-79
2022/07/04 00:19:24;;;;;;;2.58;1.20;;;;;;;-141.50;100.00;63355.56;5020015;28;20092;-80
2022/07/04 00:21:50;;;;;;;1.77;1.00;;;;;;;-141.50;100.00;63355.56;5021162;28;20725;-78
2022/07/04 00:24:17;;;;;;;2.35;1.05;;;;;;;-141.50;100.00;63355.56;5019153;28;20087;-78
2022/07/04 00:26:44;;;;;;;5.65;1.25;;;;;;;-141.50;100.00;63355.56;5038462;28;20122;-79
2022/07/04 00:29:11;;;;;;;4.88;1.13;;;;;;;-141.50;100.00;63355.56;5021055;28;20173;-79
2022/07/04 00:31:37;;;;;;;2.10;1.20;;;;;;;-141.50;100.00;63355.56;5035253;28;20053;-80
2022/07/04 00:34:05;;;;;;;3.42;1.33;;;;;;;-141.50;100.00;63355.56;5017487;28;20068;-79
2022/07/04 00:36:32;;;;;;;2.85;1.13;;;;;;;-141.50;100.00;63355.56;5000205;28;20172;-80
2022/07/04 00:38:58;;;;;;;7.35;1.73;;;;;;;-141.50;100.00;63355.56;5034969;28;20049;-81
2022/07/04 00:41:25;;;;;;;4.25;1.40;;;;;;;-141.50;100.00;63355.56;5034973;28;20049;-80
2022/07/04 00:44:12;;;;;;;3.17;1.25;;;;;;;-141.50;100.00;63355.56;5034256;28;20045;-78
2022/07/04 00:46:40;;;;;;;4.82;1.40;;;;;;;-141.50;100.00;63355.56;5017082;28;20469;-81
2022/07/04 00:49:07;;;;;;;4.32;1.40;;;;;;;-141.50;100.00;63355.56;5035039;28;20295;-80
2022/07/04 00:51:35;;;;;;;6.07;1.40;;;;;;;-141.50;100.00;63355.56;5017175;28;20056;-79
2022/07/04 00:54:01;;;;;;;2.90;1.17;;;;;;;-141.50;100.00;63355.56;5017716;28;20091;-80
2022/07/04 00:56:29;;;;;;;4.80;1.27;;;;;;;-141.50;100.00;63355.56;5016827;28;20119;-80
2022/07/04 00:58:56;;;;;;;5.00;1.27;;;;;;;-141.50;100.00;63355.56;5032916;28;20077;-78
2022/07/04 01:01:22;;;;;;;3.65;1.23;;;;;;;-141.50;100.00;63355.56;5023156;28;20089;-79
2022/07/04 01:03:49;;;;;;;4.95;1.33;;;;;;;-141.50;100.00;63355.56;5017866;28;20534;-80
2022/07/04 01:06:16;;;;;;;4.30;1.40;;;;;;;-141.50;100.00;63355.56;5012472;28;20057;-78
2022/07/04 01:08:44;;;;;;;4.95;1.38;;;;;;;-141.50;100.00;63355.56;5013592;28;20474;-79
2022/07/04 01:11:11;;;;;;;2.47;1.30;;;;;;;-141.50;100.00;63355.56;5014021;28;20142;-80
2022/07/04 01:13:40;;;;;;;3.88;1.55;;;;;;;-141.50;100.00;63355.56;4996539;28;20089;-80
2022/07/04 01:16:08;;;;;;;7.63;1.30;;;;;;;-141.50;100.00;63355.56;4996562;28;20077;-80
2022/07/04 01:18:35;;;;;;;7.25;1.33;;;;;;;-141.50;100.00;63355.56;4995745;28;20058;-79
2022/07/04 01:21:02;;;;;;;3.70;1.40;;;;;;;-141.50;100.00;63355.56;4997109;28;20085;-80
2022/07/04 01:23:28;;;;;;;5.18;1.40;;;;;;;-141.50;100.00;63355.56;4997014;28;20194;-80
2022/07/04 01:25:56;;;;;;;6.40;1.40;;;;;;;-141.50;100.00;63355.56;5015942;28;20462;-79
2022/07/04 01:28:24;;;;;;;6.65;1.50;;;;;;;-141.50;100.00;63355.56;5013293;28;20078;-80
2022/07/04 01:30:51;;;;;;;11.05;1.50;;;;;;;-141.50;100.00;63355.56;5011948;28;20125;-79
2022/07/04 01:33:19;;;;;;;3.17;1.27;;;;;;;-141.50;100.00;63355.56;4994701;28;20053;-80
2022/07/04 01:35:47;;;;;;;2.55;1.23;;;;;;;-141.50;100.00;63355.56;5012877;28;20116;-80
2022/07/04 01:38:14;;;;;;;3.00;1.25;;;;;;;-141.50;100.00;63355.56;5012757;28;20080;-80
2022/07/04 01:40:40;;;;;;;4.85;1.45;;;;;;;-141.50;100.00;63355.56;4995993;28;20081;-79
2022/07/04 01:43:07;;;;;;;3.95;1.50;;;;;;;-141.50;100.00;63355.56;4996978;28;20092;-80
2022/07/04 01:45:37;;;;;;;6.75;1.60;;;;;;;-141.50;100.00;63355.56;5014433;28;20176;-80
2022/07/04 01:48:07;;;;;;;5.35;1.67;;;;;;;-141.50;100.00;63355.56;4998566;28;20076;-79
2022/07/04 01:50:35;;;;;;;2.33;1.48;;;;;;;-141.50;100.00;63355.56;4994478;28;20138;-78
2022/07/04 01:53:02;;;;;;;8.32;1.77;;;;;;;-141.50;100.00;63355.56;5012403;28;20443;-80
2022/07/04 01:55:29;;;;;;;3.80;1.58;;;;;;;-141.50;100.00;63355.56;5013602;28;20080;-78
2022/07/04 01:57:57;;;;;;;3.03;1.73;;;;;;;-141.50;100.00;63355.56;4996992;28;20136;-81
2022/07/04 02:03:09;;;;;;;5.45;2.30;;;;;;;-141.50;100.00;63355.56;5024660;28;20172;-80
2022/07/04 02:05:39;;;;;;;3.25;1.77;;;;;;;-141.50;100.00;63355.56;4993554;28;20049;-79
2022/07/04 02:08:07;;;;;;;6.50;2.05;;;;;;;-141.50;100.00;63355.56;5010764;28;20068;-80
2022/07/04 02:10:34;;;;;;;9.40;1.60;;;;;;;-141.50;100.00;63355.56;5010494;28;20152;-81
2022/07/04 02:13:01;;;;;;;8.35;2.20;;;;;;;-141.50;100.00;63355.56;4994302;28;20545;-80
2022/07/04 02:15:29;;;;;;;4.72;1.65;;;;;;;-141.50;100.00;63355.56;4995256;28;20144;-79
2022/07/04 02:17:57;;;;;;;9.07;2.20;;;;;;;-141.50;100.00;63355.56;5012303;28;20478;-78
2022/07/04 02:20:24;;;;;;;4.65;2.17;;;;;;;-141.50;100.00;63355.56;5012332;28;20435;-78
2022/07/04 02:22:51;;;;;;;7.60;2.08;;;;;;;-141.50;100.00;63355.56;5013033;28;20145;-80
2022/07/04 02:25:18;;;;;;;5.35;2.20;;;;;;;-141.50;100.00;63355.56;4994244;28;20112;-79
2022/07/04 02:27:44;;;;;;;3.97;2.03;;;;;;;-141.50;100.00;63355.56;5013885;28;20590;-81
2022/07/04 02:30:12;;;;;;;4.72;2.30;;;;;;;-141.50;100.00;63355.56;5013866;28;20073;-80
2022/07/04 02:32:39;;;;;;;6.55;2.55;;;;;;;-141.50;100.00;63355.56;5013908;28;20103;-79
2022/07/04 02:35:06;;;;;;;8.07;2.92;;;;;;;-141.50;100.00;63355.56;5013697;28;20073;-79
2022/07/04 02:37:33;;;;;;;6.57;2.85;;;;;;;-141.50;100.00;63355.56;4993019;28;20162;-78
2022/07/04 02:39:59;;;;;;;5.97;2.90;;;;;;;-141.50;100.00;63355.56;4992559;28;20137;-80
2022/07/04 02:42:30;;;;;;;6.43;2.88;;;;;;;-141.50;100.00;63355.56;4993814;28;20140;-81
2022/07/04 02:44:57;;;;;;;8.77;3.03;;;;;;;-141.50;100.00;63355.56;5011832;28;20116;-80
2022/07/04 02:47:24;;;;;;;12.15;2.92;;;;;;;-141.50;100.00;63355.56;4995639;28;20056;-79
2022/07/04 02:49:51;;;;;;;7.05;3.08;;;;;;;-141.50;100.00;63355.56;4995059;28;20128;-81
2022/07/04 02:52:17;;;;;;;6.53;3.45;;;;;;;-141.50;100.00;63355.56;5013524;28;20092;-80
2022/07/04 02:54:45;;;;;;;12.27;3.58;;;;;;;-141.50;100.00;63355.56;4996314;28;20525;-81
2022/07/04 02:57:13;;;;;;;5.40;3.03;;;;;;;-141.50;100.00;63355.56;4996808;28;20053;-80
2022/07/04 02:59:39;;;;;;;11.63;3.53;;;;;;;-141.50;100.00;63355.56;5013340;28;20104;-81
2022/07/04 03:02:06;;;;;;;9.88;3.47;;;;;;;-141.50;100.00;63355.56;5006596;28;20072;-80
2022/07/04 03:04:33;;;;;;;13.73;4.10;;;;;;;-141.50;100.00;63355.56;5013789;28;20077;-80
2022/07/04 03:07:00;;;;;;;6.80;4.13;;;;;;;-141.50;100.00;63355.56;5012796;28;20130;-81
2022/07/04 03:09:29;;;;;;;8.50;4.32;;;;;;;-141.50;100.00;63355.56;5013840;28;20073;-85
2022/07/04 03:11:56;;;;;;;7.15;4.53;;;;;;;-141.50;100.00;63355.56;5013470;28;20092;-80
2022/07/04 03:14:22;;;;;;;7.75;4.78;;;;;;;-141.50;100.00;63355.56;5013973;28;20546;-82
2022/07/04 03:16:49;;;;;;;8.43;4.82;;;;;;;-141.50;100.00;63355.56;4995511;28;20081;-79
2022/07/04 03:19:17;;;;;;;9.45;5.10;;;;;;;-141.50;100.00;63355.56;5009778;28;20096;-80
2022/07/04 03:21:43;;;;;;;9.70;4.90;;;;;;;-141.50;100.00;63355.56;5010801;28;20060;-81
2022/07/04 03:24:10;;;;;;;11.90;5.00;;;;;;;-141.50;100.00;63355.56;5010189;28;20495;-79
2022/07/04 03:26:37;;;;;;;7.10;4.55;;;;;;;-141.50;100.00;63355.56;4995198;28;20057;-82
2022/07/04 03:29:03;;;;;;;10.57;4.30;;;;;;;-141.50;100.00;63355.56;5013101;28;20046;-81
2022/07/04 03:31:30;;;;;;;8.82;4.38;;;;;;;-141.50;100.00;63355.56;5013254;28;20133;-80
2022/07/04 03:33:57;;;;;;;7.65;4.18;;;;;;;-141.50;100.00;63355.56;5013338;28;20058;-80
2022/07/04 03:36:23;;;;;;;12.05;4.70;;;;;;;-141.50;100.00;63355.56;5002190;28;20053;-78
2022/07/04 03:38:50;;;;;;;10.40;4.40;;;;;;;-141.50;100.00;63355.56;5004356;28;20046;-81
2022/07/04 03:41:16;;;;;;;13.05;4.75;;;;;;;-141.50;100.00;63355.56;5018144;28;20115;-80
2022/07/04 03:43:43;;;;;;;9.77;4.25;;;;;;;-141.50;100.00;63355.56;5016103;28;20203;-80
2022/07/04 03:46:10;;;;;;;8.10;4.72;;;;;;;-141.50;100.00;63355.56;5016748;28;20129;-81
2022/07/04 03:48:36;;;;;;;9.65;4.53;;;;;;;-141.50;100.00;63355.56;5016331;28;20096;-79
2022/07/04 03:51:03;;;;;;;6.55;4.80;;;;;;;-141.50;100.00;63355.56;5026122;28;20050;-80
2022/07/04 03:53:29;;;;;;;8.05;4.10;;;;;;;-141.50;100.00;63355.56;5026462;28;20057;-78
2022/07/04 03:55:56;;;;;;;7.57;4.40;;;;;;;-141.50;100.00;63355.56;5009400;28;20080;-79
2022/07/04 03:58:22;;;;;;;7.85;4.60;;;;;;;-141.50;100.00;63355.56;5009380;28;20049;-80
2022/07/04 04:00:49;;;;;;;7.22;4.28;;;;;;;-141.50;100.00;63355.56;5025885;28;20061;-79
2022/07/04 04:06:01;;;;;;;6.13;4.10;;;;;;;-141.50;100.00;63355.56;5024758;28;20049;-79
2022/07/04 04:08:27;;;;;;;8.65;4.13;;;;;;;-141.50;100.00;63355.56;5023775;28;20038;-78
2022/07/04 04:10:54;;;;;;;7.45;4.35;;;;;;;-141.50;100.00;63355.56;5024377;28;20074;-77
2022/07/04 04:13:20;;;;;;;7.70;4.55;;;;;;;-141.50;100.00;63355.56;5000059;28;20057;-78
2022/07/04 04:15:47;;;;;;;8.75;4.28;;;;;;;-141.50;100.00;63355.56;5017312;28;20119;-77
2022/07/04 04:18:14;;;;;;;7.60;4.68;;;;;;;-141.50;100.00;63355.56;5001838;28;20089;-78
2022/07/04 04:20:40;;;;;;;9.23;5.03;;;;;;;-141.50;100.00;63355.56;5021397;28;20081;-80
2022/07/04 04:23:07;;;;;;;8.45;4.40;;;;;;;-141.50;100.00;63355.56;4996723;28;20081;-80
2022/07/04 04:25:33;;;;;;;12.45;4.68;;;;;;;-141.50;100.00;63355.56;5013196;28;20442;-80
2022/07/04 04:28:00;;;;;;;10.13;5.00;;;;;;;-141.50;100.00;63355.56;5003385;28;20073;-81
2022/07/04 04:30:26;;;;;;;8.15;4.97;;;;;;;-141.50;100.00;63355.56;5026222;28;20041;-79
2022/07/04 04:32:53;;;;;;;14.35;4.88;;;;;;;-141.50;100.00;63355.56;5025544;28;20119;-79
2022/07/04 04:35:19;;;;;;;7.82;4.55;;;;;;;-141.50;100.00;63355.56;5023864;28;20045;-80
2022/07/04 04:37:46;;;;;;;7.60;4.75;;;;;;;-141.50;100.00;63355.56;5032926;28;20049;-79
2022/07/04 04:40:13;;;;;;;6.43;4.50;;;;;;;-141.50;100.00;63355.56;5045545;28;20065;-80
2022/07/04 04:42:39;;;;;;;10.20;5.40;;;;;;;-141.50;100.00;63355.56;5028099;28;20049;-78
2022/07/04 04:45:06;;;;;;;7.82;4.60;;;;;;;-141.50;100.00;63355.56;5027596;28;20462;-80
2022/07/04 04:47:33;;;;;;;7.43;4.50;;;;;;;-141.50;100.00;63355.56;5018845;28;20481;-81
2022/07/04 04:50:00;;;;;;;8.75;4.82;;;;;;;-141.50;100.00;63355.56;5019028;28;20073;-82
2022/07/04 04:52:27;;;;;;;8.75;5.22;;;;;;;-141.50;100.00;63355.56;5018516;28;20187;-83
2022/07/04 04:54:53;;;;;;;10.38;4.88;;;;;;;-141.50;100.00;63355.56;5036419;28;20080;-86
2022/07/04 04:57:20;;;;;;;11.15;5.35;;;;;;;-141.50;100.00;63355.56;5016477;28;20500;-80
2022/07/04 04:59:46;;;;;;;16.08;5.50;;;;;;;-141.50;100.00;63355.56;5030980;28;20139;-80
2022/07/04 05:02:18;;;;;;;9.70;5.10;;;;;;;-141.50;100.00;63355.56;5023386;28;20085;-80
2022/07/04 05:04:45;;;;;;;10.25;5.57;;;;;;;-141.50;100.00;63355.56;5016040;28;20079;-80
2022/07/04 05:07:12;;;;;;;8.05;5.35;;;;;;;-141.50;100.00;63355.56;5015969;28;20057;-79
2022/07/04 05:09:39;;;;;;;10.02;5.32;;;;;;;-141.50;100.00;63355.56;5017229;28;20140;-79
2022/07/04 05:12:06;;;;;;;8.27;5.13;;;;;;;-141.50;100.00;63355.56;5035435;28;20049;-79
2022/07/04 05:14:32;;;;;;;9.75;5.57;;;;;;;-141.50;100.00;63355.56;5033707;28;20084;-79
2022/07/04 05:16:59;;;;;;;7.53;4.47;;;;;;;-141.50;100.00;63355.56;5033621;28;20136;-78
2022/07/04 05:19:25;;;;;;;11.20;4.57;;;;;;;-141.50;100.00;63355.56;5033533;28;20055;-80
2022/07/04 05:21:52;;;;;;;9.63;5.32;;;;;;;-141.50;100.00;63355.56;5036734;28;20050;-80
2022/07/04 05:24:19;;;;;;;19.25;4.95;;;;;;;-141.50;100.00;63355.56;5037099;28;20049;-81
2022/07/04 05:26:45;;;;;;;9.40;4.75;;;;;;;-141.50;100.00;63355.56;5018637;28;20057;-80
2022/07/04 05:29:12;;;;;;;10.05;4.88;;;;;;;-141.50;100.00;63355.56;5016518;28;20105;-81
2022/07/04 05:31:39;;;;;;;11.25;5.20;;;;;;;-141.50;100.00;63355.56;5026404;28;20141;-81
2022/07/04 05:34:05;;;;;;;14.70;4.70;;;;;;;-141.50;100.00;63355.56;5019032;28;20606;-80
2022/07/04 05:36:32;;;;;;;10.63;4.40;;;;;;;-141.50;100.00;63355.56;5022497;28;20049;-80
2022/07/04 05:38:58;;;;;;;9.85;4.10;;;;;;;-141.50;100.00;63355.56;4993463;28;20124;-80
2022/07/04 05:41:25;;;;;;;13.60;4.70;;;;;;;-141.50;100.00;63355.56;5008873;28;20093;-79
2022/07/04 05:43:52;;;;;;;8.63;4.32;;;;;;;-141.50;100.00;63355.56;5000254;28;20058;-78
2022/07/04 05:46:24;;;;;;;8.07;4.35;;;;;;;-141.50;100.00;63355.56;5007808;28;20389;-82
2022/07/04 05:48:50;;;;;;;9.55;3.90;;;;;;;-141.50;100.00;63355.56;5018725;28;20061;-79
2022/07/04 05:51:17;;;;;;;7.15;4.25;;;;;;;-141.50;100.00;63355.56;4991496;28;20200;-81
2022/07/04 05:53:43;;;;;;;9.75;3.92;;;;;;;-141.50;100.00;63355.56;5009645;28;20112;-80
2022/07/04 05:56:10;;;;;;;9.23;4.20;;;;;;;-141.50;100.00;63355.56;5017849;28;20097;-80
2022/07/04 05:58:37;;;;;;;9.77;4.78;;;;;;;-141.50;100.00;63355.56;5012430;28;20118;-80
2022/07/04 06:01:03;;;;;;;9.15;4.13;;;;;;;-141.50;100.00;63355.56;5024415;28;20073;-80
2022/07/04 06:03:30;;;;;;;9.45;4.30;;;;;;;-141.50;100.00;63355.56;4997925;28;20050;-81
2022/07/04 06:05:57;;;;;;;9.82;4.13;;;;;;;-141.50;100.00;63355.56;5015651;28;20119;-79
2022/07/04 06:08:24;;;;;;;7.45;4.18;;;;;;;-141.50;100.00;63355.56;4997678;28;20133;-80
2022/07/04 06:10:50;;;;;;;6.47;3.40;;;;;;;-141.50;100.00;63355.56;5012976;28;20495;-81
2022/07/04 06:13:17;;;;;;;9.95;3.85;;;;;;;-141.50;100.00;63355.56;5012848;28;20078;-80
2022/07/04 06:15:43;;;;;;;6.40;2.97;;;;;;;-141.50;100.00;63355.56;4995297;28;20541;-80
2022/07/04 06:18:10;;;;;;;7.70;3.90;;;;;;;-141.50;100.00;63355.56;5014161;28;20137;-80
2022/07/04 06:20:36;;;;;;;9.38;3.10;;;;;;;-141.50;100.00;63355.56;5013255;28;20085;-79
2022/07/04 06:23:03;;;;;;;8.05;2.95;;;;;;;-141.50;100.00;63355.56;4996246;28;20088;-81
2022/07/04 06:25:30;;;;;;;11.85;3.30;;;;;;;-141.50;100.00;63355.56;5013374;28;20430;-80
2022/07/04 06:27:56;;;;;;;6.68;2.90;;;;;;;-141.50;100.00;63355.56;4996320;28;20129;-81
2022/07/04 06:30:23;;;;;;;13.40;3.30;;;;;;;-141.50;100.00;63355.56;5014028;28;20454;-83
2022/07/04 06:32:53;;;;;;;9.27;3.17;;;;;;;-141.50;100.00;63355.56;5010559;28;20049;-80
2022/07/04 06:38:07;;;;;;;8.48;2.70;;;;;;;-141.50;100.00;63355.56;5015660;28;20212;-80
2022/07/04 06:40:35;;;;;;;12.80;3.20;;;;;;;-141.50;100.00;63355.56;5001746;28;20128;-79
2022/07/04 06:43:03;;;;;;;6.35;2.75;;;;;;;-141.50;100.00;63355.56;5023549;28;20077;-78
2022/07/04 06:45:30;;;;;;;6.65;2.60;;;;;;;-141.50;100.00;63355.56;5023512;28;20092;-79
2022/07/04 06:47:57;;;;;;;7.55;2.75;;;;;;;-141.50;100.00;63355.56;5042346;28;20049;-79
2022/07/04 06:50:23;;;;;;;4.65;2.20;;;;;;;-141.50;100.00;63355.56;5016907;28;20049;-82
2022/07/04 06:53:07;;;;;;;9.40;2.97;;;;;;;-141.50;100.00;63355.56;5032930;28;20526;-82
2022/07/04 06:55:35;;;;;;;10.55;2.97;;;;;;;-141.50;100.00;63355.56;5030082;28;20099;-81
2022/07/04 06:58:02;;;;;;;7.18;2.70;;;;;;;-141.50;100.00;63355.56;5030733;28;20081;-81
2022/07/04 07:00:31;;;;;;;5.60;2.50;;;;;;;-141.50;100.00;63355.56;5029350;28;20059;-82
2022/07/04 07:02:59;;;;;;;7.28;2.40;;;;;;;-141.50;100.00;63355.56;5023877;28;20088;-80
2022/07/04 07:05:26;;;;;;;6.18;2.92;;;;;;;-141.50;100.00;63355.56;5014989;28;20609;-81
2022/07/04 07:08:13;;;;;;;5.65;2.60;;;;;;;-141.50;100.00;63355.56;5032194;28;20053;-81
2022/07/04 07:10:39;;;;;;;11.88;3.20;;;;;;;-141.50;100.00;63355.56;5033094;28;20045;-81
2022/07/04 07:13:06;;;;;;;9.63;3.00;;;;;;;-141.50;100.00;63355.56;5033587;28;20080;-80
2022/07/04 07:15:35;;;;;;;6.38;2.67;;;;;;;-141.50;100.00;63355.56;5032827;28;20481;-82
2022/07/04 07:18:05;;;;;;;8.25;2.22;;;;;;;-141.50;100.00;63355.56;5014202;28;20147;-82
2022/07/04 07:20:32;;;;;;;9.57;3.30;;;;;;;-141.50;100.00;63355.56;5038884;28;20073;-84
2022/07/04 07:23:02;;;;;;;6.78;2.63;;;;;;;-141.50;100.00;63355.56;5018253;28;20421;-80
2022/07/04 07:25:29;;;;;;;4.50;2.28;;;;;;;-141.50;100.00;63355.56;5019908;28;20046;-82
2022/07/04 07:27:55;;;;;;;6.70;2.50;;;;;;;-141.50;100.00;63355.56;5037546;28;20061;-82
2022/07/04 07:30:22;;;;;;;7.18;2.50;;;;;;;-141.50;100.00;63355.56;5018903;28;20052;-85
2022/07/04 07:32:48;;;;;;;6.30;2.38;;;;;;;-141.50;100.00;63355.56;5036356;28;20104;-81
2022/07/04 07:35:15;;;;;;;5.18;2.20;;;;;;;-141.50;100.00;63355.56;5017473;28;20081;-83
2022/07/04 07:37:41;;;;;;;4.43;2.25;;;;;;;-141.50;100.00;63355.56;5033506;28;20132;-84
2022/07/04 07:40:09;;;;;;;3.58;2.03;;;;;;;-141.50;100.00;63355.56;5032879;28;20426;-81
2022/07/04 07:42:36;;;;;;;5.63;2.03;;;;;;;-141.50;100.00;63355.56;5033166;28;20132;-83
2022/07/04 07:45:03;;;;;;;4.55;1.60;;;;;;;-141.50;100.00;63355.56;5014666;28;20080;-82
2022/07/04 07:47:30;;;;;;;4.88;1.45;;;;;;;-141.50;100.00;63355.56;5033017;28;20046;-83
2022/07/04 07:49:56;;;;;;;2.75;1.40;;;;;;;-141.50;100.00;63355.56;5034023;28;20084;-83
2022/07/04 07:52:23;;;;;;;5.38;1.95;;;;;;;-141.50;100.00;63355.56;5017527;28;20049;-83
2022/07/04 07:54:53;;;;;;;2.20;1.38;;;;;;;-141.50;100.00;63355.56;5028403;28;20053;-83
2022/07/04 07:57:29;;;;;;;7.72;1.60;;;;;;;-141.50;100.00;63355.56;5032195;28;20575;-83
2022/07/04 07:59:56;;;;;;;2.60;1.50;;;;;;;-141.50;100.00;63355.56;5014683;28;20075;-79
2022/07/04 08:04:34;;;;;;;4.45;1.70;;;;;;;-141.50;100.00;63355.56;5006996;28;20188;-79
2022/07/04 08:05:11;;;;;;;8.10;1.60;;;;;;;-141.50;100.00;63355.56;5036124;28;20111;-82
2022/07/04 08:07:39;;;;;;;4.72;1.67;;;;;;;-141.50;100.00;63355.56;5036630;28;20049;-81
2022/07/04 08:10:06;;;;;;;5.03;1.77;;;;;;;-141.50;100.00;63355.56;5031373;28;20123;-79
2022/07/04 08:12:32;;;;;;;6.85;1.90;;;;;;;-141.50;100.00;63355.56;5014555;28;20056;-79
2022/07/04 08:14:59;;;;;;;4.43;1.20;;;;;;;-141.50;100.00;63355.56;5032112;28;20140;-80
2022/07/04 08:17:32;;;;;;;2.65;1.20;;;;;;;-141.50;100.00;63355.56;5032834;28;20053;-80
2022/07/04 08:19:58;;;;;;;4.78;1.60;;;;;;;-141.50;100.00;63355.56;5033283;28;20216;-79
2022/07/04 08:22:25;;;;;;;4.75;1.50;;;;;;;-141.50;100.00;63355.56;5035325;28;20055;-82
2022/07/04 08:24:52;;;;;;;6.78;1.60;;;;;;;-141.50;100.00;63355.56;5017945;28;20122;-81
2022/07/04 08:27:20;;;;;;;7.30;1.40;;;;;;;-141.50;100.00;63355.56;5035752;28;20441;-83
2022/07/04 08:29:46;;;;;;;6.75;1.80;;;;;;;-141.50;100.00;63355.56;5034629;28;20049;-83
2022/07/04 08:32:14;;;;;;;3.15;1.38;;;;;;;-141.50;100.00;63355.56;5034241;28;20468;-83
2022/07/04 08:34:42;;;;;;;5.95;1.35;;;;;;;-141.50;100.00;63355.56;5017711;28;20054;-82
2022/07/04 08:37:09;;;;;;;3.60;1.38;;;;;;;-141.50;100.00;63355.56;5035233;28;20053;-83
2022/07/04 08:39:35;;;;;;;5.13;1.60;;;;;;;-141.50;100.00;63355.56;5016783;28;20081;-82
2022/07/04 08:42:06;;;;;;;9.70;1.83;;;;;;;-141.50;100.00;63355.56;5016871;28;20128;-81
2022/07/04 08:44:38;;;;;;;3.42;1.50;;;;;;;-141.50;100.00;63355.56;5038102;28;20152;-78
2022/07/04 08:47:09;;;;;;;3.75;1.23;;;;;;;-141.50;100.00;63355.56;5040746;28;20105;-81
2022/07/04 08:49:45;;;;;;;2.70;1.30;;;;;;;-141.50;100.00;63355.56;5022944;28;20068;-78
2022/07/04 08:52:16;;;;;;;3.65;1.30;;;;;;;-141.50;100.00;63355.56;5037479;28;20059;-78
2022/07/04 09:00:14;;;;;;;4.40;1.50;;;;;;;-141.50;100.00;63355.56;5034298;28;20065;-80
2022/07/04 09:02:40;;;;;;;7.15;1.63;;;;;;;-141.50;100.00;63355.56;5004682;28;20229;-82
2022/07/04 09:05:08;;;;;;;4.65;1.35;;;;;;;-141.50;100.00;63355.56;5012684;28;20077;-79
2022/07/04 09:07:35;;;;;;;4.35;1.30;;;;;;;-141.50;100.00;63355.56;5014297;28;20054;-81
2022/07/04 09:10:03;;;;;;;5.63;1.30;;;;;;;-141.50;100.00;63355.56;5012386;28;20103;-81
2022/07/04 09:12:29;;;;;;;3.63;1.35;;;;;;;-141.50;100.00;63355.56;5033812;28;20053;-84
2022/07/04 09:15:15;;;;;;;3.35;1.35;;;;;;;-141.50;100.00;63355.56;5034962;28;20111;-81
2022/07/04 09:17:41;;;;;;;3.55;1.30;;;;;;;-141.50;100.00;63355.56;5034680;28;20156;-83
2022/07/04 09:20:15;;;;;;;4.60;1.35;;;;;;;-141.50;100.00;63355.56;5034013;28;20136;-81
2022/07/04 09:22:42;;;;;;;9.02;1.35;;;;;;;-141.50;100.00;63355.56;5015800;28;20649;-85
2022/07/04 09:25:12;;;;;;;3.72;1.15;;;;;;;-141.50;100.00;63355.56;5034659;28;20281;-82
2022/07/04 09:27:41;;;;;;;8.70;1.15;;;;;;;-141.50;100.00;63355.56;5033478;28;20060;-83
2022/07/04 09:30:08;;;;;;;7.00;1.30;;;;;;;-141.50;100.00;63355.56;5016065;28;20053;-84
2022/07/04 09:32:43;;;;;;;7.32;1.33;;;;;;;-141.50;100.00;63355.56;5015049;28;20046;-83
2022/07/04 09:35:21;;;;;;;7.47;1.48;;;;;;;-141.50;100.00;63355.56;5034977;28;20084;-81
2022/07/04 09:37:52;;;;;;;6.68;1.80;;;;;;;-141.50;100.00;63355.56;5023993;28;20061;-84
2022/07/04 09:43:25;;;;;;;6.25;1.38;;;;;;;-141.50;100.00;63355.56;5034157;28;20597;-83
2022/07/04 09:46:01;;;;;;;3.40;1.55;;;;;;;-141.50;100.00;63355.56;5034438;28;20579;-84
2022/07/04 09:48:51;;;;;;;5.13;1.73;;;;;;;-141.50;100.00;63355.56;5016864;28;20057;-84
2022/07/04 09:51:35;;;;;;;2.60;1.30;;;;;;;-141.50;100.00;63355.56;5034443;28;20072;-84
2022/07/04 09:54:18;;;;;;;7.55;1.23;;;;;;;-141.50;100.00;63355.56;5034109;28;20060;-84
2022/07/04 09:56:51;;;;;;;6.97;1.35;;;;;;;-141.50;100.00;63355.56;5035345;28;20064;-85
2022/07/04 09:59:19;;;;;;;4.95;0.82;;;;;;;-141.50;100.00;63355.56;5016371;28;20045;-83
2022/07/04 10:01:46;;;;;;;2.45;1.20;;;;;;;-141.50;100.00;63355.56;5025446;28;20422;-83
2022/07/04 10:04:13;;;;;;;3.53;1.08;;;;;;;-141.50;100.00;63355.56;5016136;28;20054;-83
2022/07/04 10:06:44;;;;;;;3.80;1.02;;;;;;;-141.50;100.00;63355.56;5010566;28;20053;-85
2022/07/04 10:09:14;;;;;;;6.40;1.30;;;;;;;-141.50;100.00;63355.56;5026897;28;20054;-82
2022/07/04 10:11:42;;;;;;;2.13;1.23;;;;;;;-141.50;100.00;63355.56;5034275;28;20052;-83
2022/07/04 10:14:11;;;;;;;3.15;1.40;;;;;;;-141.50;100.00;63355.56;5033979;28;20056;-84
2022/07/04 10:16:39;;;;;;;7.00;1.10;;;;;;;-141.50;100.00;63355.56;5033043;28;20133;-84
2022/07/04 10:19:07;;;;;;;4.93;1.40;;;;;;;-141.50;100.00;63355.56;5033162;28;20136;-83
2022/07/04 10:21:34;;;;;;;2.38;1.20;;;;;;;-141.50;100.00;63355.56;5032040;28;20083;-82
2022/07/04 10:24:05;;;;;;;2.78;1.20;;;;;;;-141.50;100.00;63355.56;5005082;28;20438;-81
2022/07/04 10:26:32;;;;;;;2.05;1.10;;;;;;;-141.50;100.00;63355.56;5019579;28;20080;-82
2022/07/04 10:28:58;;;;;;;3.47;1.00;;;;;;;-141.50;100.00;63355.56;5020048;28;20054;-82
2022/07/04 10:31:28;;;;;;;8.98;1.30;;;;;;;-141.50;100.00;63355.56;4991639;28;20085;-80
2022/07/04 10:33:57;;;;;;;2.25;0.95;;;;;;;-141.50;100.00;63355.56;5022081;28;20053;-84
2022/07/04 10:36:30;;;;;;;4.47;1.40;;;;;;;-141.50;100.00;63355.56;5022779;28;20092;-81
2022/07/04 10:39:01;;;;;;;3.70;1.10;;;;;;;-141.50;100.00;63355.56;5015565;28;20716;-84
2022/07/04 10:41:29;;;;;;;4.72;1.40;;;;;;;-141.50;100.00;63355.56;5008739;28;20045;-83
2022/07/04 10:44:09;;;;;;;3.38;1.15;;;;;;;-141.50;100.00;63355.56;5027315;28;20053;-84
2022/07/04 10:46:47;;;;;;;3.55;1.20;;;;;;;-141.50;100.00;63355.56;4993854;28;20085;-83
2022/07/04 10:49:14;;;;;;;2.45;1.10;;;;;;;-141.50;100.00;63355.56;5008165;28;20049;-83
2022/07/04 10:51:47;;;;;;;4.45;1.00;;;;;;;-141.50;100.00;63355.56;5022801;28;20053;-83
2022/07/04 10:54:20;;;;;;;6.95;1.25;;;;;;;-141.50;100.00;63355.56;5011868;28;20140;-83
2022/07/04 10:56:53;;;;;;;4.68;1.15;;;;;;;-141.50;100.00;63355.56;5011561;28;20435;-83
2022/07/04 10:59:28;;;;;;;5.05;1.30;;;;;;;-141.50;100.00;63355.56;5028459;28;20085;-84
2022/07/04 11:02:06;;;;;;;;;;;;;;;-141.50;100.00;63355.56;5026794;28;20080;-81
2022/07/04 11:05:10;;;;;;;3.13;0.98;;;;;;;-141.50;100.00;63355.56;5008741;28;19931;-83
2022/07/04 11:07:40;;;;;;;6.63;1.23;;;;;;;-141.50;100.00;63355.56;5021101;28;20395;-81
2022/07/04 11:10:21;;;;;;;3.13;1.30;;;;;;;-141.50;100.00;63355.56;5010401;28;20084;-82
2022/07/04 11:12:54;;;;;;;2.28;1.25;;;;;;;-141.50;100.00;63355.56;5028325;28;20160;-83
2022/07/04 11:15:29;;;;;;;2.17;1.20;;;;;;;-141.50;100.00;63355.56;5000294;28;20498;-83
2022/07/04 11:17:57;;;;;;;5.40;1.35;;;;;;;-141.50;100.00;63355.56;5039721;28;20076;-85
2022/07/04 11:20:25;;;;;;;6.68;1.30;;;;;;;-141.50;100.00;63355.56;5033521;28;20084;-82
2022/07/04 11:23:03;;;;;;;7.05;1.20;;;;;;;-141.50;100.00;63355.56;5037044;28;20365;-81
2022/07/04 11:25:30;;;;;;;2.22;1.20;;;;;;;-141.50;100.00;63355.56;5039506;28;20081;-82
2022/07/04 11:27:56;;;;;;;4.25;1.13;;;;;;;-141.50;100.00;63355.56;5018665;28;20060;-83
2022/07/04 11:30:23;;;;;;;1.90;1.35;;;;;;;-141.50;100.00;63355.56;5032088;28;20158;-84
2022/07/04 11:32:49;;;;;;;4.57;1.50;;;;;;;-141.50;100.00;63355.56;5031642;28;20199;-82